Air Navigation Services of Czech Republic
Airport: LKKB Updated:  20.05.2022 19:04:31  UTC
 METAR LKKB 20.05. 19:00 COR
METAR COR LKKB 201900Z 19007KT 9999 SCT050CB SCT130 26/16 Q1013 NOSIG RMK BLU BLU=
 TAF LKKB 20.05. 17:00 ...
TAF LKKB 201700Z 2018/2118 24007KT CAVOK      TEMPO 2018/2103 32016G34KT 4000 TSRA BKN027CB      PROB30 TEMPO 2020/2100 32024G48KT 2500 TSGR BKN020CB      BECMG 2102/2104 27014KT BKN040      TEMPO 2103/2106 30016G30KT      BECMG 2112/2114 CAVOK=
 WARNING LKKB 20.05. 18:55 ...
LKKB AD WRNG 1 VALID 201915/202030 TS FCST INTSF=
 WARNING LKKB 20.05. 19:00 ...
LKKB AD WRNG 2 VALID 201915/201945 SFC WSPD MAX OVR 45KT FCST=